sensor_id;sensor_type;location;lat;lon;timestamp;P1;durP1;ratioP1;P2;durP2;ratioP2
18217;SDS011;9234;49.344;11.120;2022-10-22T00:01:28;9.98;;;5.20;;
18217;SDS011;9234;49.344;11.120;2022-10-22T00:03:56;8.65;;;5.85;;
18217;SDS011;9234;49.344;11.120;2022-10-22T00:06:24;9.00;;;4.55;;
18217;SDS011;9234;49.344;11.120;2022-10-22T00:08:52;10.95;;;5.75;;
18217;SDS011;9234;49.344;11.120;2022-10-22T00:11:20;12.73;;;5.60;;
18217;SDS011;9234;49.344;11.120;2022-10-22T00:13:49;7.63;;;4.63;;
18217;SDS011;9234;49.344;11.120;2022-10-22T00:16:17;6.43;;;4.63;;
18217;SDS011;9234;49.344;11.120;2022-10-22T00:18:47;6.97;;;5.10;;
18217;SDS011;9234;49.344;11.120;2022-10-22T00:21:15;10.13;;;4.90;;
18217;SDS011;9234;49.344;11.120;2022-10-22T00:23:43;9.68;;;4.60;;
18217;SDS011;9234;49.344;11.120;2022-10-22T00:26:12;8.15;;;5.53;;
18217;SDS011;9234;49.344;11.120;2022-10-22T00:28:40;8.20;;;5.40;;
18217;SDS011;9234;49.344;11.120;2022-10-22T00:31:08;9.05;;;5.28;;
18217;SDS011;9234;49.344;11.120;2022-10-22T00:33:37;7.90;;;4.57;;
18217;SDS011;9234;49.344;11.120;2022-10-22T00:36:07;7.50;;;4.70;;
18217;SDS011;9234;49.344;11.120;2022-10-22T00:38:35;7.57;;;4.25;;
18217;SDS011;9234;49.344;11.120;2022-10-22T00:41:03;9.35;;;5.07;;
18217;SDS011;9234;49.344;11.120;2022-10-22T00:43:32;6.60;;;4.65;;
18217;SDS011;9234;49.344;11.120;2022-10-22T00:46:19;9.63;;;4.95;;
18217;SDS011;9234;49.344;11.120;2022-10-22T00:48:47;6.63;;;4.05;;
18217;SDS011;9234;49.344;11.120;2022-10-22T00:51:18;7.68;;;3.80;;
18217;SDS011;9234;49.344;11.120;2022-10-22T00:53:51;8.70;;;4.38;;
18217;SDS011;9234;49.344;11.120;2022-10-22T00:56:26;5.95;;;3.67;;
18217;SDS011;9234;49.344;11.120;2022-10-22T00:58:55;6.18;;;3.83;;
18217;SDS011;9234;49.344;11.120;2022-10-22T01:01:27;7.78;;;4.70;;
18217;SDS011;9234;49.344;11.120;2022-10-22T01:03:58;6.53;;;4.53;;
18217;SDS011;9234;49.344;11.120;2022-10-22T01:06:28;7.68;;;4.30;;
18217;SDS011;9234;49.344;11.120;2022-10-22T01:09:02;8.02;;;4.10;;
18217;SDS011;9234;49.344;11.120;2022-10-22T01:11:49;6.53;;;4.07;;
18217;SDS011;9234;49.344;11.120;2022-10-22T01:14:32;9.45;;;3.85;;
18217;SDS011;9234;49.344;11.120;2022-10-22T01:17:13;8.23;;;3.70;;
18217;SDS011;9234;49.344;11.120;2022-10-22T01:19:54;7.38;;;3.97;;
18217;SDS011;9234;49.344;11.120;2022-10-22T01:22:39;8.35;;;4.05;;
18217;SDS011;9234;49.344;11.120;2022-10-22T01:25:13;5.63;;;3.78;;
18217;SDS011;9234;49.344;11.120;2022-10-22T01:27:52;6.28;;;3.75;;
18217;SDS011;9234;49.344;11.120;2022-10-22T01:30:35;8.90;;;3.97;;
18217;SDS011;9234;49.344;11.120;2022-10-22T01:33:05;5.82;;;3.80;;
18217;SDS011;9234;49.344;11.120;2022-10-22T01:35:41;8.00;;;4.15;;
18217;SDS011;9234;49.344;11.120;2022-10-22T01:38:12;8.15;;;3.90;;
18217;SDS011;9234;49.344;11.120;2022-10-22T01:40:45;4.82;;;2.92;;
18217;SDS011;9234;49.344;11.120;2022-10-22T01:43:15;9.63;;;3.60;;
18217;SDS011;9234;49.344;11.120;2022-10-22T01:45:45;8.18;;;3.70;;
18217;SDS011;9234;49.344;11.120;2022-10-22T01:48:25;6.10;;;3.75;;
18217;SDS011;9234;49.344;11.120;2022-10-22T01:51:11;5.40;;;3.15;;
18217;SDS011;9234;49.344;11.120;2022-10-22T01:54:06;5.13;;;2.92;;
18217;SDS011;9234;49.344;11.120;2022-10-22T01:56:52;5.78;;;3.20;;
18217;SDS011;9234;49.344;11.120;2022-10-22T01:59:33;6.75;;;3.40;;
18217;SDS011;9234;49.344;11.120;2022-10-22T02:02:19;4.97;;;3.80;;
18217;SDS011;9234;49.344;11.120;2022-10-22T02:04:59;6.88;;;2.80;;
18217;SDS011;9234;49.344;11.120;2022-10-22T02:07:35;5.90;;;3.28;;
18217;SDS011;9234;49.344;11.120;2022-10-22T02:10:08;7.80;;;3.65;;
18217;SDS011;9234;49.344;11.120;2022-10-22T02:12:39;9.43;;;3.30;;
18217;SDS011;9234;49.344;11.120;2022-10-22T02:15:10;4.88;;;3.00;;
18217;SDS011;9234;49.344;11.120;2022-10-22T02:17:43;8.45;;;3.50;;
18217;SDS011;9234;49.344;11.120;2022-10-22T02:20:13;4.85;;;2.75;;
18217;SDS011;9234;49.344;11.120;2022-10-22T02:22:47;6.38;;;3.10;;
18217;SDS011;9234;49.344;11.120;2022-10-22T02:25:16;6.93;;;3.03;;
18217;SDS011;9234;49.344;11.120;2022-10-22T02:27:45;5.60;;;3.05;;
18217;SDS011;9234;49.344;11.120;2022-10-22T02:30:20;3.10;;;2.80;;
18217;SDS011;9234;49.344;11.120;2022-10-22T02:32:52;5.72;;;2.30;;
18217;SDS011;9234;49.344;11.120;2022-10-22T02:35:26;5.65;;;3.05;;
18217;SDS011;9234;49.344;11.120;2022-10-22T02:37:56;5.30;;;2.53;;
18217;SDS011;9234;49.344;11.120;2022-10-22T02:40:26;3.92;;;2.90;;
18217;SDS011;9234;49.344;11.120;2022-10-22T02:42:56;6.32;;;3.05;;
18217;SDS011;9234;49.344;11.120;2022-10-22T02:45:25;5.10;;;2.53;;
18217;SDS011;9234;49.344;11.120;2022-10-22T02:47:55;4.38;;;2.53;;
18217;SDS011;9234;49.344;11.120;2022-10-22T02:50:24;4.65;;;2.75;;
18217;SDS011;9234;49.344;11.120;2022-10-22T02:52:52;3.95;;;2.50;;
18217;SDS011;9234;49.344;11.120;2022-10-22T02:55:20;4.88;;;2.30;;
18217;SDS011;9234;49.344;11.120;2022-10-22T02:57:48;3.97;;;2.28;;
18217;SDS011;9234;49.344;11.120;2022-10-22T03:00:17;3.15;;;2.70;;
18217;SDS011;9234;49.344;11.120;2022-10-22T03:02:45;4.25;;;2.60;;
18217;SDS011;9234;49.344;11.120;2022-10-22T03:05:15;3.90;;;2.17;;
18217;SDS011;9234;49.344;11.120;2022-10-22T03:07:43;5.43;;;2.58;;
18217;SDS011;9234;49.344;11.120;2022-10-22T03:10:11;3.50;;;2.35;;
18217;SDS011;9234;49.344;11.120;2022-10-22T03:12:39;6.13;;;2.70;;
18217;SDS011;9234;49.344;11.120;2022-10-22T03:15:08;4.78;;;2.10;;
18217;SDS011;9234;49.344;11.120;2022-10-22T03:17:36;4.13;;;2.17;;
18217;SDS011;9234;49.344;11.120;2022-10-22T03:20:06;4.63;;;2.40;;
18217;SDS011;9234;49.344;11.120;2022-10-22T03:22:36;6.90;;;2.47;;
18217;SDS011;9234;49.344;11.120;2022-10-22T03:25:09;5.07;;;2.50;;
18217;SDS011;9234;49.344;11.120;2022-10-22T03:27:42;7.15;;;2.67;;
18217;SDS011;9234;49.344;11.120;2022-10-22T03:30:12;8.75;;;2.35;;
18217;SDS011;9234;49.344;11.120;2022-10-22T03:32:40;4.03;;;2.03;;
18217;SDS011;9234;49.344;11.120;2022-10-22T03:35:09;2.78;;;1.88;;
18217;SDS011;9234;49.344;11.120;2022-10-22T03:37:38;1.98;;;1.60;;
18217;SDS011;9234;49.344;11.120;2022-10-22T03:40:08;3.40;;;2.20;;
18217;SDS011;9234;49.344;11.120;2022-10-22T03:42:38;2.83;;;2.08;;
18217;SDS011;9234;49.344;11.120;2022-10-22T03:45:08;4.15;;;2.10;;
18217;SDS011;9234;49.344;11.120;2022-10-22T03:47:37;3.78;;;2.03;;
18217;SDS011;9234;49.344;11.120;2022-10-22T03:50:06;3.33;;;1.80;;
18217;SDS011;9234;49.344;11.120;2022-10-22T03:52:36;5.90;;;2.20;;
18217;SDS011;9234;49.344;11.120;2022-10-22T03:55:08;2.75;;;1.80;;
18217;SDS011;9234;49.344;11.120;2022-10-22T03:57:36;6.00;;;1.98;;
18217;SDS011;9234;49.344;11.120;2022-10-22T04:00:06;4.15;;;1.73;;
18217;SDS011;9234;49.344;11.120;2022-10-22T04:02:36;4.20;;;1.83;;
18217;SDS011;9234;49.344;11.120;2022-10-22T04:05:05;3.72;;;1.70;;
18217;SDS011;9234;49.344;11.120;2022-10-22T04:07:34;4.97;;;1.92;;
18217;SDS011;9234;49.344;11.120;2022-10-22T04:10:04;3.33;;;2.13;;
18217;SDS011;9234;49.344;11.120;2022-10-22T04:12:33;3.65;;;2.58;;
18217;SDS011;9234;49.344;11.120;2022-10-22T04:15:02;5.60;;;1.63;;
18217;SDS011;9234;49.344;11.120;2022-10-22T04:17:34;4.57;;;2.70;;
18217;SDS011;9234;49.344;11.120;2022-10-22T04:20:03;4.88;;;2.00;;
18217;SDS011;9234;49.344;11.120;2022-10-22T04:22:33;5.05;;;2.10;;
18217;SDS011;9234;49.344;11.120;2022-10-22T04:25:02;4.70;;;2.00;;
18217;SDS011;9234;49.344;11.120;2022-10-22T04:27:32;2.75;;;1.88;;
18217;SDS011;9234;49.344;11.120;2022-10-22T04:30:02;3.50;;;2.03;;
18217;SDS011;9234;49.344;11.120;2022-10-22T04:32:32;4.70;;;2.15;;
18217;SDS011;9234;49.344;11.120;2022-10-22T04:35:00;3.10;;;1.92;;
18217;SDS011;9234;49.344;11.120;2022-10-22T04:37:29;3.10;;;2.08;;
18217;SDS011;9234;49.344;11.120;2022-10-22T04:39:58;4.30;;;2.10;;
18217;SDS011;9234;49.344;11.120;2022-10-22T04:42:27;4.95;;;2.22;;
18217;SDS011;9234;49.344;11.120;2022-10-22T04:44:55;4.60;;;1.98;;
18217;SDS011;9234;49.344;11.120;2022-10-22T04:47:24;3.13;;;1.90;;
18217;SDS011;9234;49.344;11.120;2022-10-22T04:49:52;4.22;;;2.20;;
18217;SDS011;9234;49.344;11.120;2022-10-22T04:52:20;3.67;;;2.03;;
18217;SDS011;9234;49.344;11.120;2022-10-22T04:54:48;3.70;;;1.77;;
18217;SDS011;9234;49.344;11.120;2022-10-22T04:57:16;3.10;;;1.90;;
18217;SDS011;9234;49.344;11.120;2022-10-22T04:59:46;3.88;;;2.40;;
18217;SDS011;9234;49.344;11.120;2022-10-22T05:02:14;3.83;;;2.10;;
18217;SDS011;9234;49.344;11.120;2022-10-22T05:04:42;6.57;;;2.33;;
18217;SDS011;9234;49.344;11.120;2022-10-22T05:07:10;4.45;;;1.88;;
18217;SDS011;9234;49.344;11.120;2022-10-22T05:09:39;2.83;;;1.95;;
18217;SDS011;9234;49.344;11.120;2022-10-22T05:12:07;3.28;;;2.13;;
18217;SDS011;9234;49.344;11.120;2022-10-22T05:14:35;2.00;;;1.80;;
18217;SDS011;9234;49.344;11.120;2022-10-22T05:17:11;2.40;;;1.90;;
18217;SDS011;9234;49.344;11.120;2022-10-22T05:19:39;4.65;;;2.42;;
18217;SDS011;9234;49.344;11.120;2022-10-22T05:22:08;2.50;;;2.25;;
18217;SDS011;9234;49.344;11.120;2022-10-22T05:24:36;3.08;;;2.33;;
18217;SDS011;9234;49.344;11.120;2022-10-22T05:27:04;4.00;;;2.10;;
18217;SDS011;9234;49.344;11.120;2022-10-22T05:29:32;2.55;;;2.03;;
18217;SDS011;9234;49.344;11.120;2022-10-22T05:32:01;2.97;;;2.75;;
18217;SDS011;9234;49.344;11.120;2022-10-22T05:34:30;3.55;;;2.33;;
18217;SDS011;9234;49.344;11.120;2022-10-22T05:37:01;3.65;;;2.50;;
18217;SDS011;9234;49.344;11.120;2022-10-22T05:39:30;7.50;;;2.78;;
18217;SDS011;9234;49.344;11.120;2022-10-22T05:42:01;3.72;;;2.75;;
18217;SDS011;9234;49.344;11.120;2022-10-22T05:44:30;3.10;;;2.80;;
18217;SDS011;9234;49.344;11.120;2022-10-22T05:46:58;5.15;;;2.70;;
18217;SDS011;9234;49.344;11.120;2022-10-22T05:49:27;4.00;;;2.72;;
18217;SDS011;9234;49.344;11.120;2022-10-22T05:51:56;4.72;;;2.72;;
18217;SDS011;9234;49.344;11.120;2022-10-22T05:54:24;2.97;;;2.38;;
18217;SDS011;9234;49.344;11.120;2022-10-22T05:56:52;4.25;;;2.10;;
18217;SDS011;9234;49.344;11.120;2022-10-22T05:59:21;2.67;;;2.05;;
18217;SDS011;9234;49.344;11.120;2022-10-22T06:01:49;6.95;;;1.92;;
18217;SDS011;9234;49.344;11.120;2022-10-22T06:04:17;2.97;;;1.80;;
18217;SDS011;9234;49.344;11.120;2022-10-22T06:06:46;1.88;;;1.70;;
18217;SDS011;9234;49.344;11.120;2022-10-22T06:09:19;3.60;;;1.75;;
18217;SDS011;9234;49.344;11.120;2022-10-22T06:11:52;4.82;;;1.88;;
18217;SDS011;9234;49.344;11.120;2022-10-22T06:14:22;2.53;;;1.80;;
18217;SDS011;9234;49.344;11.120;2022-10-22T06:16:51;6.10;;;2.38;;
18217;SDS011;9234;49.344;11.120;2022-10-22T06:19:20;2.88;;;1.77;;
18217;SDS011;9234;49.344;11.120;2022-10-22T06:21:50;2.47;;;1.65;;
18217;SDS011;9234;49.344;11.120;2022-10-22T06:24:20;2.75;;;2.40;;
18217;SDS011;9234;49.344;11.120;2022-10-22T06:26:49;4.68;;;2.30;;
18217;SDS011;9234;49.344;11.120;2022-10-22T06:29:18;11.60;;;2.10;;
18217;SDS011;9234;49.344;11.120;2022-10-22T06:31:47;4.75;;;2.40;;
18217;SDS011;9234;49.344;11.120;2022-10-22T06:34:15;3.65;;;2.28;;
18217;SDS011;9234;49.344;11.120;2022-10-22T06:36:44;3.33;;;2.50;;
18217;SDS011;9234;49.344;11.120;2022-10-22T06:39:14;5.47;;;2.65;;
18217;SDS011;9234;49.344;11.120;2022-10-22T06:41:45;3.83;;;2.70;;
18217;SDS011;9234;49.344;11.120;2022-10-22T06:44:16;3.90;;;2.60;;
18217;SDS011;9234;49.344;11.120;2022-10-22T06:46:48;3.67;;;2.60;;
18217;SDS011;9234;49.344;11.120;2022-10-22T06:49:18;6.15;;;2.80;;
18217;SDS011;9234;49.344;11.120;2022-10-22T06:51:48;4.47;;;2.88;;
18217;SDS011;9234;49.344;11.120;2022-10-22T06:54:17;4.07;;;2.88;;
18217;SDS011;9234;49.344;11.120;2022-10-22T06:56:47;4.85;;;2.70;;
18217;SDS011;9234;49.344;11.120;2022-10-22T06:59:16;3.15;;;2.50;;
18217;SDS011;9234;49.344;11.120;2022-10-22T07:01:44;4.20;;;2.35;;
18217;SDS011;9234;49.344;11.120;2022-10-22T07:04:12;3.08;;;1.90;;
18217;SDS011;9234;49.344;11.120;2022-10-22T07:06:41;6.82;;;2.40;;
18217;SDS011;9234;49.344;11.120;2022-10-22T07:09:09;3.67;;;2.55;;
18217;SDS011;9234;49.344;11.120;2022-10-22T07:11:38;6.00;;;2.30;;
18217;SDS011;9234;49.344;11.120;2022-10-22T07:14:10;5.15;;;2.42;;
18217;SDS011;9234;49.344;11.120;2022-10-22T07:16:39;2.95;;;2.05;;
18217;SDS011;9234;49.344;11.120;2022-10-22T07:19:11;3.40;;;2.45;;
18217;SDS011;9234;49.344;11.120;2022-10-22T07:21:40;3.33;;;2.80;;
18217;SDS011;9234;49.344;11.120;2022-10-22T07:24:08;2.53;;;2.30;;
18217;SDS011;9234;49.344;11.120;2022-10-22T07:26:36;4.25;;;3.08;;
18217;SDS011;9234;49.344;11.120;2022-10-22T07:29:04;6.72;;;3.40;;
18217;SDS011;9234;49.344;11.120;2022-10-22T07:31:34;3.40;;;3.10;;
18217;SDS011;9234;49.344;11.120;2022-10-22T07:34:03;3.90;;;2.50;;
18217;SDS011;9234;49.344;11.120;2022-10-22T07:36:31;5.45;;;2.47;;
18217;SDS011;9234;49.344;11.120;2022-10-22T07:39:00;3.65;;;2.65;;
18217;SDS011;9234;49.344;11.120;2022-10-22T07:41:29;3.70;;;2.30;;
18217;SDS011;9234;49.344;11.120;2022-10-22T07:43:58;4.43;;;3.33;;
18217;SDS011;9234;49.344;11.120;2022-10-22T07:46:26;5.18;;;2.13;;
18217;SDS011;9234;49.344;11.120;2022-10-22T07:48:56;2.90;;;2.42;;
18217;SDS011;9234;49.344;11.120;2022-10-22T07:51:24;3.42;;;1.73;;
18217;SDS011;9234;49.344;11.120;2022-10-22T07:53:52;2.78;;;1.92;;
18217;SDS011;9234;49.344;11.120;2022-10-22T07:56:20;3.75;;;1.38;;
18217;SDS011;9234;49.344;11.120;2022-10-22T07:58:49;3.33;;;1.73;;
18217;SDS011;9234;49.344;11.120;2022-10-22T08:01:17;2.50;;;1.42;;
18217;SDS011;9234;49.344;11.120;2022-10-22T08:03:45;3.42;;;2.47;;
18217;SDS011;9234;49.344;11.120;2022-10-22T08:06:15;2.88;;;2.38;;
18217;SDS011;9234;49.344;11.120;2022-10-22T08:08:44;4.13;;;2.78;;
18217;SDS011;9234;49.344;11.120;2022-10-22T08:11:12;5.50;;;1.70;;
18217;SDS011;9234;49.344;11.120;2022-10-22T08:13:41;5.43;;;2.10;;
18217;SDS011;9234;49.344;11.120;2022-10-22T08:16:11;2.47;;;1.38;;
18217;SDS011;9234;49.344;11.120;2022-10-22T08:18:40;2.97;;;1.40;;
18217;SDS011;9234;49.344;11.120;2022-10-22T08:21:09;2.85;;;0.80;;
18217;SDS011;9234;49.344;11.120;2022-10-22T08:23:39;3.83;;;1.10;;
18217;SDS011;9234;49.344;11.120;2022-10-22T08:26:07;1.73;;;1.10;;
18217;SDS011;9234;49.344;11.120;2022-10-22T08:28:36;2.33;;;0.80;;
18217;SDS011;9234;49.344;11.120;2022-10-22T08:31:05;2.58;;;1.00;;
18217;SDS011;9234;49.344;11.120;2022-10-22T08:33:34;1.10;;;1.00;;
18217;SDS011;9234;49.344;11.120;2022-10-22T08:36:04;1.60;;;0.90;;
18217;SDS011;9234;49.344;11.120;2022-10-22T08:38:34;1.65;;;1.10;;
18217;SDS011;9234;49.344;11.120;2022-10-22T08:41:06;2.85;;;1.10;;
18217;SDS011;9234;49.344;11.120;2022-10-22T08:47:11;2.85;;;1.02;;
18217;SDS011;9234;49.344;11.120;2022-10-22T08:50:03;0.70;;;0.70;;
18217;SDS011;9234;49.344;11.120;2022-10-22T08:52:35;2.55;;;1.00;;
18217;SDS011;9234;49.344;11.120;2022-10-22T08:55:11;1.13;;;0.85;;
18217;SDS011;9234;49.344;11.120;2022-10-22T08:57:45;2.53;;;0.70;;
18217;SDS011;9234;49.344;11.120;2022-10-22T09:00:27;2.30;;;0.98;;
18217;SDS011;9234;49.344;11.120;2022-10-22T09:03:11;4.40;;;1.30;;
18217;SDS011;9234;49.344;11.120;2022-10-22T09:06:04;1.55;;;0.82;;
18217;SDS011;9234;49.344;11.120;2022-10-22T09:08:38;1.58;;;1.48;;
18217;SDS011;9234;49.344;11.120;2022-10-22T09:11:13;1.67;;;1.40;;
18217;SDS011;9234;49.344;11.120;2022-10-22T09:13:51;1.73;;;0.88;;
18217;SDS011;9234;49.344;11.120;2022-10-22T09:16:24;1.17;;;0.80;;
18217;SDS011;9234;49.344;11.120;2022-10-22T09:19:06;2.22;;;1.00;;
18217;SDS011;9234;49.344;11.120;2022-10-22T09:21:49;4.47;;;0.82;;
18217;SDS011;9234;49.344;11.120;2022-10-22T09:24:29;1.25;;;0.60;;
18217;SDS011;9234;49.344;11.120;2022-10-22T09:27:06;2.63;;;0.93;;
18217;SDS011;9234;49.344;11.120;2022-10-22T09:29:42;2.35;;;0.70;;
18217;SDS011;9234;49.344;11.120;2022-10-22T09:32:13;2.58;;;0.88;;
18217;SDS011;9234;49.344;11.120;2022-10-22T09:34:42;0.88;;;0.75;;
18217;SDS011;9234;49.344;11.120;2022-10-22T09:37:11;0.50;;;0.50;;
18217;SDS011;9234;49.344;11.120;2022-10-22T09:39:45;2.33;;;0.50;;
18217;SDS011;9234;49.344;11.120;2022-10-22T09:42:19;3.92;;;0.50;;
18217;SDS011;9234;49.344;11.120;2022-10-22T09:44:50;1.10;;;0.60;;
18217;SDS011;9234;49.344;11.120;2022-10-22T09:47:28;1.23;;;0.43;;
18217;SDS011;9234;49.344;11.120;2022-10-22T09:50:21;3.00;;;0.68;;
18217;SDS011;9234;49.344;11.120;2022-10-22T09:53:00;0.45;;;0.40;;
18217;SDS011;9234;49.344;11.120;2022-10-22T09:55:38;0.95;;;0.63;;
18217;SDS011;9234;49.344;11.120;2022-10-22T09:58:09;3.05;;;0.82;;
18217;SDS011;9234;49.344;11.120;2022-10-22T10:00:42;1.13;;;0.40;;
18217;SDS011;9234;49.344;11.120;2022-10-22T10:03:17;1.10;;;0.28;;
18217;SDS011;9234;49.344;11.120;2022-10-22T10:05:49;2.53;;;0.50;;
18217;SDS011;9234;49.344;11.120;2022-10-22T10:08:20;3.35;;;0.40;;
18217;SDS011;9234;49.344;11.120;2022-10-22T10:10:51;2.15;;;0.60;;
18217;SDS011;9234;49.344;11.120;2022-10-22T10:13:35;4.15;;;0.43;;
18217;SDS011;9234;49.344;11.120;2022-10-22T10:16:28;1.08;;;0.40;;
18217;SDS011;9234;49.344;11.120;2022-10-22T10:19:15;1.73;;;0.30;;
18217;SDS011;9234;49.344;11.120;2022-10-22T10:22:09;3.00;;;0.77;;
18217;SDS011;9234;49.344;11.120;2022-10-22T10:24:57;2.45;;;0.65;;
18217;SDS011;9234;49.344;11.120;2022-10-22T10:27:52;0.80;;;0.40;;
18217;SDS011;9234;49.344;11.120;2022-10-22T10:30:30;2.05;;;0.47;;
18217;SDS011;9234;49.344;11.120;2022-10-22T10:33:12;0.65;;;0.22;;
18217;SDS011;9234;49.344;11.120;2022-10-22T10:35:55;3.22;;;0.60;;
18217;SDS011;9234;49.344;11.120;2022-10-22T10:38:37;1.95;;;0.40;;
18217;SDS011;9234;49.344;11.120;2022-10-22T10:41:18;3.33;;;0.52;;
18217;SDS011;9234;49.344;11.120;2022-10-22T10:44:03;0.95;;;0.40;;
18217;SDS011;9234;49.344;11.120;2022-10-22T10:46:55;1.20;;;0.63;;
18217;SDS011;9234;49.344;11.120;2022-10-22T10:49:41;1.23;;;0.70;;
18217;SDS011;9234;49.344;11.120;2022-10-22T10:52:12;0.57;;;0.43;;
18217;SDS011;9234;49.344;11.120;2022-10-22T10:54:53;3.08;;;0.70;;
18217;SDS011;9234;49.344;11.120;2022-10-22T10:57:36;1.20;;;0.30;;
18217;SDS011;9234;49.344;11.120;2022-10-22T11:00:16;2.22;;;0.22;;
18217;SDS011;9234;49.344;11.120;2022-10-22T11:03:00;1.08;;;0.40;;
18217;SDS011;9234;49.344;11.120;2022-10-22T11:05:57;1.17;;;0.32;;
18217;SDS011;9234;49.344;11.120;2022-10-22T11:08:29;2.78;;;0.55;;
18217;SDS011;9234;49.344;11.120;2022-10-22T11:11:04;2.35;;;0.65;;
18217;SDS011;9234;49.344;11.120;2022-10-22T11:13:39;1.35;;;0.40;;
18217;SDS011;9234;49.344;11.120;2022-10-22T11:16:17;3.00;;;0.68;;
18217;SDS011;9234;49.344;11.120;2022-10-22T11:18:54;3.33;;;0.80;;
18217;SDS011;9234;49.344;11.120;2022-10-22T11:21:33;3.92;;;1.00;;
18217;SDS011;9234;49.344;11.120;2022-10-22T11:24:09;0.75;;;0.45;;
18217;SDS011;9234;49.344;11.120;2022-10-22T11:26:47;1.05;;;0.57;;
18217;SDS011;9234;49.344;11.120;2022-10-22T11:29:23;1.50;;;0.52;;
18217;SDS011;9234;49.344;11.120;2022-10-22T11:32:01;0.40;;;0.40;;
18217;SDS011;9234;49.344;11.120;2022-10-22T11:34:32;1.13;;;0.50;;
18217;SDS011;9234;49.344;11.120;2022-10-22T11:37:09;1.85;;;0.47;;
18217;SDS011;9234;49.344;11.120;2022-10-22T11:39:41;1.15;;;0.57;;
18217;SDS011;9234;49.344;11.120;2022-10-22T11:42:17;1.40;;;0.52;;
18217;SDS011;9234;49.344;11.120;2022-10-22T11:44:56;2.63;;;0.60;;
18217;SDS011;9234;49.344;11.120;2022-10-22T11:47:28;2.22;;;0.70;;
18217;SDS011;9234;49.344;11.120;2022-10-22T11:50:02;0.95;;;0.38;;
18217;SDS011;9234;49.344;11.120;2022-10-22T11:52:52;3.10;;;0.73;;
18217;SDS011;9234;49.344;11.120;2022-10-22T11:55:41;2.63;;;0.40;;
18217;SDS011;9234;49.344;11.120;2022-10-22T11:58:31;3.42;;;0.55;;
18217;SDS011;9234;49.344;11.120;2022-10-22T12:01:19;1.02;;;0.40;;
18217;SDS011;9234;49.344;11.120;2022-10-22T12:07:24;2.20;;;0.68;;
18217;SDS011;9234;49.344;11.120;2022-10-22T12:10:05;1.05;;;0.50;;
18217;SDS011;9234;49.344;11.120;2022-10-22T12:12:50;1.25;;;0.30;;
18217;SDS011;9234;49.344;11.120;2022-10-22T12:15:25;3.35;;;0.60;;
18217;SDS011;9234;49.344;11.120;2022-10-22T12:17:58;2.50;;;0.50;;
18217;SDS011;9234;49.344;11.120;2022-10-22T12:20:28;1.95;;;0.40;;
18217;SDS011;9234;49.344;11.120;2022-10-22T12:22:57;1.80;;;0.60;;
18217;SDS011;9234;49.344;11.120;2022-10-22T12:25:29;1.02;;;0.38;;
18217;SDS011;9234;49.344;11.120;2022-10-22T12:28:01;3.15;;;0.30;;
18217;SDS011;9234;49.344;11.120;2022-10-22T12:30:30;2.30;;;0.68;;
18217;SDS011;9234;49.344;11.120;2022-10-22T12:33:01;2.35;;;0.45;;
18217;SDS011;9234;49.344;11.120;2022-10-22T12:35:33;0.93;;;0.40;;
18217;SDS011;9234;49.344;11.120;2022-10-22T12:38:11;3.42;;;0.60;;
18217;SDS011;9234;49.344;11.120;2022-10-22T12:40:44;0.65;;;0.43;;
18217;SDS011;9234;49.344;11.120;2022-10-22T12:43:15;1.17;;;0.60;;
18217;SDS011;9234;49.344;11.120;2022-10-22T12:45:46;1.23;;;0.43;;
18217;SDS011;9234;49.344;11.120;2022-10-22T12:48:17;2.10;;;0.45;;
18217;SDS011;9234;49.344;11.120;2022-10-22T12:50:50;2.42;;;0.55;;
18217;SDS011;9234;49.344;11.120;2022-10-22T12:53:22;0.70;;;0.30;;
18217;SDS011;9234;49.344;11.120;2022-10-22T12:55:58;2.45;;;0.57;;
18217;SDS011;9234;49.344;11.120;2022-10-22T12:58:33;3.80;;;0.55;;
18217;SDS011;9234;49.344;11.120;2022-10-22T13:01:08;1.90;;;0.60;;
18217;SDS011;9234;49.344;11.120;2022-10-22T13:03:39;1.17;;;0.47;;
18217;SDS011;9234;49.344;11.120;2022-10-22T13:06:11;0.93;;;0.40;;
18217;SDS011;9234;49.344;11.120;2022-10-22T13:08:55;2.35;;;0.50;;
18217;SDS011;9234;49.344;11.120;2022-10-22T13:11:37;1.73;;;0.40;;
18217;SDS011;9234;49.344;11.120;2022-10-22T13:14:17;1.00;;;0.70;;
18217;SDS011;9234;49.344;11.120;2022-10-22T13:17:02;1.70;;;0.35;;
18217;SDS011;9234;49.344;11.120;2022-10-22T13:19:35;3.92;;;0.52;;
18217;SDS011;9234;49.344;11.120;2022-10-22T13:22:29;5.13;;;0.52;;
18217;SDS011;9234;49.344;11.120;2022-10-22T13:25:03;3.10;;;0.70;;
18217;SDS011;9234;49.344;11.120;2022-10-22T13:27:50;1.08;;;0.40;;
18217;SDS011;9234;49.344;11.120;2022-10-22T13:30:22;1.02;;;0.22;;
18217;SDS011;9234;49.344;11.120;2022-10-22T13:32:54;0.75;;;0.30;;
18217;SDS011;9234;49.344;11.120;2022-10-22T13:35:26;1.75;;;0.40;;
18217;SDS011;9234;49.344;11.120;2022-10-22T13:37:58;1.00;;;0.45;;
18217;SDS011;9234;49.344;11.120;2022-10-22T13:40:27;0.90;;;0.57;;
18217;SDS011;9234;49.344;11.120;2022-10-22T13:42:57;1.40;;;0.45;;
18217;SDS011;9234;49.344;11.120;2022-10-22T13:45:25;0.95;;;0.35;;
18217;SDS011;9234;49.344;11.120;2022-10-22T13:47:54;1.85;;;0.45;;
18217;SDS011;9234;49.344;11.120;2022-10-22T13:50:23;0.75;;;0.28;;
18217;SDS011;9234;49.344;11.120;2022-10-22T13:52:52;3.92;;;0.45;;
18217;SDS011;9234;49.344;11.120;2022-10-22T13:55:23;1.23;;;0.50;;
18217;SDS011;9234;49.344;11.120;2022-10-22T13:57:54;2.25;;;0.28;;
18217;SDS011;9234;49.344;11.120;2022-10-22T14:00:27;0.77;;;0.38;;
18217;SDS011;9234;49.344;11.120;2022-10-22T14:02:56;1.95;;;0.43;;
18217;SDS011;9234;49.344;11.120;2022-10-22T14:05:26;3.92;;;0.40;;
18217;SDS011;9234;49.344;11.120;2022-10-22T14:07:55;0.90;;;0.30;;
18217;SDS011;9234;49.344;11.120;2022-10-22T14:10:25;1.13;;;0.30;;
18217;SDS011;9234;49.344;11.120;2022-10-22T14:12:54;1.38;;;0.30;;
18217;SDS011;9234;49.344;11.120;2022-10-22T14:15:26;3.53;;;0.43;;
18217;SDS011;9234;49.344;11.120;2022-10-22T14:17:56;0.63;;;0.32;;
18217;SDS011;9234;49.344;11.120;2022-10-22T14:20:28;1.85;;;0.50;;
18217;SDS011;9234;49.344;11.120;2022-10-22T14:22:59;0.77;;;0.30;;
18217;SDS011;9234;49.344;11.120;2022-10-22T14:25:39;4.13;;;0.30;;
18217;SDS011;9234;49.344;11.120;2022-10-22T14:28:08;2.80;;;0.40;;
18217;SDS011;9234;49.344;11.120;2022-10-22T14:30:39;1.25;;;0.30;;
18217;SDS011;9234;49.344;11.120;2022-10-22T14:33:09;1.52;;;0.70;;
18217;SDS011;9234;49.344;11.120;2022-10-22T14:35:42;3.72;;;0.77;;
18217;SDS011;9234;49.344;11.120;2022-10-22T14:38:11;1.88;;;0.35;;
18217;SDS011;9234;49.344;11.120;2022-10-22T14:40:40;2.30;;;0.45;;
18217;SDS011;9234;49.344;11.120;2022-10-22T14:43:09;2.63;;;0.40;;
18217;SDS011;9234;49.344;11.120;2022-10-22T14:45:42;2.83;;;0.65;;
18217;SDS011;9234;49.344;11.120;2022-10-22T14:48:10;2.92;;;0.40;;
18217;SDS011;9234;49.344;11.120;2022-10-22T14:50:38;1.75;;;0.55;;
18217;SDS011;9234;49.344;11.120;2022-10-22T14:53:06;0.95;;;0.35;;
18217;SDS011;9234;49.344;11.120;2022-10-22T14:55:35;1.23;;;0.50;;
18217;SDS011;9234;49.344;11.120;2022-10-22T14:58:03;0.57;;;0.50;;
18217;SDS011;9234;49.344;11.120;2022-10-22T15:00:32;1.98;;;0.40;;
18217;SDS011;9234;49.344;11.120;2022-10-22T15:03:03;1.67;;;0.43;;
18217;SDS011;9234;49.344;11.120;2022-10-22T15:05:31;1.23;;;0.40;;
18217;SDS011;9234;49.344;11.120;2022-10-22T15:08:01;2.30;;;0.40;;
18217;SDS011;9234;49.344;11.120;2022-10-22T15:10:29;0.77;;;0.40;;
18217;SDS011;9234;49.344;11.120;2022-10-22T15:12:57;2.10;;;0.68;;
18217;SDS011;9234;49.344;11.120;2022-10-22T15:15:25;1.55;;;0.70;;
18217;SDS011;9234;49.344;11.120;2022-10-22T15:18:04;4.57;;;1.40;;
18217;SDS011;9234;49.344;11.120;2022-10-22T15:20:32;1.08;;;0.60;;
18217;SDS011;9234;49.344;11.120;2022-10-22T15:23:00;1.60;;;0.90;;
18217;SDS011;9234;49.344;11.120;2022-10-22T15:25:29;2.38;;;0.90;;
18217;SDS011;9234;49.344;11.120;2022-10-22T15:27:57;1.45;;;0.65;;